Time;durP1;ratioP1;P1;durP2;ratioP2;P2;SDS_P1;SDS_P2;PMS_P1;PMS_P2;Temp;Humidity;BMP_temperature;BMP_pressure;BME280_temperature;BME280_humidity;BME280_pressure;Samples;Min_cycle;Max_cycle;Signal;HPM_P1;HPM_P2
2023/03/07 00:01:57;;;;;;;;;;;6.20;86.50;;;;;;5094472;28;20248;-32
2023/03/07 00:04:23;;;;;;;;;;;6.20;86.50;;;;;;5094493;28;20443;-32
2023/03/07 00:06:48;;;;;;;;;;;6.20;86.60;;;;;;5094069;28;20265;-32
2023/03/07 00:09:14;;;;;;;;;;;6.20;86.70;;;;;;5093906;28;19920;-33
2023/03/07 00:11:39;;;;;;;;;;;6.20;86.70;;;;;;5094107;28;19908;-29
2023/03/07 00:14:06;;;;;;;;;;;6.20;86.70;;;;;;5094052;28;19908;-32
2023/03/07 00:16:32;;;;;;;;;;;6.20;86.80;;;;;;5094274;28;19935;-31
2023/03/07 00:18:57;;;;;;;;;;;6.20;86.80;;;;;;5093981;28;20473;-29
2023/03/07 00:21:23;;;;;;;;;;;6.20;86.80;;;;;;5093872;28;20016;-33
2023/03/07 00:23:52;;;;;;;;;;;6.20;86.80;;;;;;5093858;28;19999;-29
2023/03/07 00:26:21;;;;;;;;;;;6.20;87.00;;;;;;5093668;28;19940;-33
2023/03/07 00:28:48;;;;;;;;;;;6.20;86.90;;;;;;5093934;28;19916;-33
2023/03/07 00:31:14;;;;;;;;;;;6.20;87.00;;;;;;5093785;28;20008;-30
2023/03/07 00:33:39;;;;;;;;;;;6.20;87.00;;;;;;5093883;28;19951;-29
2023/03/07 00:36:06;;;;;;;;;;;6.20;86.90;;;;;;5093606;28;19909;-32
2023/03/07 00:38:32;;;;;;;;;;;6.20;87.00;;;;;;5093866;28;20317;-30
2023/03/07 00:41:05;;;;;;;;;;;6.20;87.00;;;;;;5093637;28;19915;-32
2023/03/07 00:43:30;;;;;;;;;;;6.20;86.90;;;;;;5093689;28;19958;-30
2023/03/07 00:45:56;;;;;;;;;;;6.20;87.00;;;;;;5093407;28;20315;-29
2023/03/07 00:48:21;;;;;;;;;;;6.10;87.10;;;;;;5093233;28;19912;-31
2023/03/07 00:50:47;;;;;;;;;;;6.10;87.10;;;;;;5092090;28;20329;-31
2023/03/07 00:53:13;;;;;;;;;;;6.10;87.10;;;;;;5093119;28;19979;-32
2023/03/07 00:55:38;;;;;;;;;;;6.10;87.00;;;;;;5093318;28;19912;-29
2023/03/07 00:58:04;;;;;;;;;;;6.20;87.10;;;;;;5093472;28;20046;-31
2023/03/07 01:00:29;;;;;;;;;;;6.20;87.10;;;;;;5093026;28;20324;-29
2023/03/07 01:02:57;;;;;;;;;;;6.20;87.00;;;;;;5093126;28;19931;-30
2023/03/07 01:05:22;;;;;;;;;;;6.20;86.90;;;;;;5093391;28;19908;-33
2023/03/07 01:07:48;;;;;;;;;;;6.20;86.80;;;;;;5092897;28;19919;-32
2023/03/07 01:10:13;;;;;;;;;;;6.20;86.80;;;;;;5093088;28;19962;-33
2023/03/07 01:12:39;;;;;;;;;;;6.20;86.70;;;;;;5093069;28;20371;-33
2023/03/07 01:15:05;;;;;;;;;;;6.30;87.00;;;;;;5092753;28;20006;-36
2023/03/07 01:17:31;;;;;;;;;;;6.20;86.80;;;;;;5092955;28;19984;-29
2023/03/07 01:19:57;;;;;;;;;;;6.20;86.90;;;;;;5092789;28;19912;-30
2023/03/07 01:22:22;;;;;;;;;;;6.30;86.90;;;;;;5092853;28;19958;-40
2023/03/07 01:24:48;;;;;;;;;;;6.30;86.90;;;;;;5092694;28;20030;-30
2023/03/07 01:27:13;;;;;;;;;;;6.30;86.90;;;;;;5092446;28;19915;-31
2023/03/07 01:29:39;;;;;;;;;;;6.30;87.00;;;;;;5092385;28;19908;-29
2023/03/07 01:32:04;;;;;;;;;;;6.30;86.90;;;;;;5092445;28;19915;-30
2023/03/07 01:34:30;;;;;;;;;;;6.30;86.90;;;;;;5092404;28;19908;-30
2023/03/07 01:36:55;;;;;;;;;;;6.40;87.00;;;;;;5092307;28;19908;-32
2023/03/07 01:39:21;;;;;;;;;;;6.30;86.80;;;;;;5092589;28;19958;-29
2023/03/07 01:41:47;;;;;;;;;;;6.40;86.90;;;;;;5092511;28;20432;-34
2023/03/07 01:44:14;;;;;;;;;;;6.40;86.90;;;;;;5092371;28;19908;-32
2023/03/07 01:46:40;;;;;;;;;;;6.40;87.00;;;;;;5092010;28;20232;-31
2023/03/07 01:49:10;;;;;;;;;;;6.40;87.10;;;;;;5092352;28;20045;-35
2023/03/07 01:51:36;;;;;;;;;;;6.40;87.20;;;;;;5092270;28;19931;-34
2023/03/07 01:54:03;;;;;;;;;;;6.40;87.10;;;;;;5091937;28;19919;-29
2023/03/07 01:56:29;;;;;;;;;;;6.40;87.10;;;;;;5092179;28;19991;-35
2023/03/07 01:58:55;;;;;;;;;;;6.40;87.10;;;;;;5092418;28;19908;-29
2023/03/07 02:01:21;;;;;;;;;;;6.40;87.20;;;;;;5091900;28;19915;-35
2023/03/07 02:03:49;;;;;;;;;;;6.40;87.10;;;;;;5091946;28;19915;-31
2023/03/07 02:06:14;;;;;;;;;;;6.40;87.80;;;;;;5091781;28;19908;-29
2023/03/07 02:08:40;;;;;;;;;;;6.40;87.20;;;;;;5091959;28;19972;-28
2023/03/07 02:11:06;;;;;;;;;;;6.30;87.10;;;;;;5092185;28;20286;-29
2023/03/07 02:13:32;;;;;;;;;;;6.40;87.20;;;;;;5091200;28;19908;-35
2023/03/07 02:15:58;;;;;;;;;;;6.40;87.30;;;;;;5091894;28;19951;-34
2023/03/07 02:18:25;;;;;;;;;;;6.30;87.20;;;;;;5091541;28;19955;-29
2023/03/07 02:21:11;;;;;;;;;;;6.40;87.50;;;;;;5091363;28;19916;-30
2023/03/07 02:23:45;;;;;;;;;;;6.30;87.40;;;;;;5091681;28;20415;-28
2023/03/07 02:26:20;;;;;;;;;;;6.30;87.50;;;;;;5090999;28;19927;-30
2023/03/07 02:28:46;;;;;;;;;;;6.30;87.50;;;;;;5091179;28;19916;-28
2023/03/07 02:31:12;;;;;;;;;;;6.30;87.70;;;;;;5089714;28;19961;-29
2023/03/07 02:33:37;;;;;;;;;;;6.30;87.70;;;;;;5091011;28;19924;-28
2023/03/07 02:36:05;;;;;;;;;;;6.20;88.00;;;;;;5091474;28;19908;-30
2023/03/07 02:38:32;;;;;;;;;;;6.20;88.00;;;;;;5091031;28;19915;-31
2023/03/07 02:40:57;;;;;;;;;;;6.20;88.40;;;;;;5091309;28;20360;-28
2023/03/07 02:43:23;;;;;;;;;;;6.10;88.20;;;;;;5091306;28;19908;-28
2023/03/07 02:45:49;;;;;;;;;;;6.10;88.40;;;;;;5091057;28;19931;-31
2023/03/07 02:48:14;;;;;;;;;;;6.00;88.50;;;;;;5090855;28;20298;-31
2023/03/07 02:50:39;;;;;;;;;;;6.00;88.60;;;;;;5091298;28;19916;-31
2023/03/07 02:53:05;;;;;;;;;;;5.90;88.70;;;;;;5090915;28;19995;-30
2023/03/07 02:55:32;;;;;;;;;;;5.90;88.70;;;;;;5090986;28;19908;-28
2023/03/07 02:57:57;;;;;;;;;;;5.90;88.60;;;;;;5091015;28;19908;-30
2023/03/07 03:00:23;;;;;;;;;;;5.90;88.60;;;;;;5091252;28;19938;-34
2023/03/07 03:02:48;;;;;;;;;;;5.90;88.70;;;;;;5091214;28;19931;-30
2023/03/07 03:05:14;;;;;;;;;;;5.90;88.60;;;;;;5090779;28;19909;-27
2023/03/07 03:07:39;;;;;;;;;;;5.90;88.80;;;;;;5090564;28;19912;-33
2023/03/07 03:10:05;;;;;;;;;;;5.80;89.10;;;;;;5090940;28;19908;-28
2023/03/07 03:12:30;;;;;;;;;;;5.90;88.70;;;;;;5090696;28;19915;-27
2023/03/07 03:14:56;;;;;;;;;;;5.90;88.50;;;;;;5090921;28;19957;-30
2023/03/07 03:17:21;;;;;;;;;;;5.90;88.40;;;;;;5090644;28;19919;-28
2023/03/07 03:19:47;;;;;;;;;;;5.90;88.40;;;;;;5090581;28;20410;-31
2023/03/07 03:22:12;;;;;;;;;;;5.90;88.40;;;;;;5090950;28;19999;-28
2023/03/07 03:24:39;;;;;;;;;;;5.90;88.30;;;;;;5090577;28;19923;-29
2023/03/07 03:27:05;;;;;;;;;;;5.90;88.20;;;;;;5094075;28;19918;-28
2023/03/07 03:29:30;;;;;;;;;;;5.90;88.20;;;;;;5094694;28;20359;-28
2023/03/07 03:31:56;;;;;;;;;;;5.90;88.20;;;;;;5095240;28;19916;-28
2023/03/07 03:34:21;;;;;;;;;;;5.90;88.20;;;;;;5095102;28;19908;-33
2023/03/07 03:36:47;;;;;;;;;;;5.90;88.00;;;;;;5094717;28;19935;-28
2023/03/07 03:39:13;;;;;;;;;;;5.90;88.00;;;;;;5095141;28;19908;-30
2023/03/07 03:41:38;;;;;;;;;;;5.90;88.00;;;;;;5094627;28;20049;-29
2023/03/07 03:44:04;;;;;;;;;;;5.90;87.90;;;;;;5094729;28;19964;-27
2023/03/07 03:46:30;;;;;;;;;;;5.90;87.90;;;;;;5094698;28;19919;-36
2023/03/07 03:48:55;;;;;;;;;;;5.90;87.70;;;;;;5094545;28;20444;-27
2023/03/07 03:51:22;;;;;;;;;;;5.90;87.70;;;;;;5094878;28;19908;-30
2023/03/07 03:53:48;;;;;;;;;;;5.90;87.70;;;;;;5094518;28;19973;-30
2023/03/07 03:56:14;;;;;;;;;;;5.90;87.70;;;;;;5094950;28;19908;-32
2023/03/07 03:58:40;;;;;;;;;;;5.90;87.60;;;;;;5094482;28;19908;-29
2023/03/07 04:01:07;;;;;;;;;;;5.90;87.60;;;;;;5094744;28;19916;-38
2023/03/07 04:03:51;;;;;;;;;;;6.00;87.60;;;;;;5094427;28;19908;-27
2023/03/07 04:06:22;;;;;;;;;;;6.00;87.60;;;;;;5094376;28;19954;-30
2023/03/07 04:08:48;;;;;;;;;;;6.00;87.60;;;;;;5093996;28;20055;-28
2023/03/07 04:11:13;;;;;;;;;;;6.00;87.50;;;;;;5094440;28;19994;-29
2023/03/07 04:13:39;;;;;;;;;;;6.00;87.50;;;;;;5092658;28;19999;-30
2023/03/07 04:16:04;;;;;;;;;;;6.00;87.50;;;;;;5093961;28;19908;-32
2023/03/07 04:18:30;;;;;;;;;;;6.00;87.50;;;;;;5093981;28;20312;-30
2023/03/07 04:20:55;;;;;;;;;;;6.00;87.40;;;;;;5094528;28;19908;-33
2023/03/07 04:23:21;;;;;;;;;;;6.10;87.40;;;;;;5094067;28;20336;-28
2023/03/07 04:25:51;;;;;;;;;;;6.10;87.40;;;;;;5093205;28;19959;-36
2023/03/07 04:28:17;;;;;;;;;;;6.10;87.30;;;;;;5092874;28;19912;-29
2023/03/07 04:30:43;;;;;;;;;;;6.10;87.40;;;;;;5092879;28;19912;-30
2023/03/07 04:33:09;;;;;;;;;;;6.10;87.30;;;;;;5091451;28;20268;-28
2023/03/07 04:35:34;;;;;;;;;;;6.10;87.30;;;;;;5093066;28;19912;-31
2023/03/07 04:38:00;;;;;;;;;;;6.10;87.30;;;;;;5092312;28;19977;-27
2023/03/07 04:40:25;;;;;;;;;;;6.10;87.50;;;;;;5092716;28;20198;-33
2023/03/07 04:42:51;;;;;;;;;;;6.10;87.40;;;;;;5092846;28;19909;-29
2023/03/07 04:45:16;;;;;;;;;;;6.10;87.30;;;;;;5092795;28;20070;-28
2023/03/07 04:47:41;;;;;;;;;;;6.10;87.40;;;;;;5092440;28;19912;-28
2023/03/07 04:50:07;;;;;;;;;;;6.10;87.30;;;;;;5092644;28;20287;-33
2023/03/07 04:52:33;;;;;;;;;;;6.00;87.10;;;;;;5092654;28;19954;-29
2023/03/07 04:54:58;;;;;;;;;;;6.00;87.20;;;;;;5092661;28;19909;-29
2023/03/07 04:57:24;;;;;;;;;;;6.00;87.30;;;;;;5092356;28;20387;-28
2023/03/07 04:59:49;;;;;;;;;;;6.00;87.20;;;;;;5092578;28;19915;-33
2023/03/07 05:02:15;;;;;;;;;;;6.00;87.10;;;;;;5092262;28;20368;-33
2023/03/07 05:04:40;;;;;;;;;;;6.00;86.90;;;;;;5090686;28;20002;-35
2023/03/07 05:07:06;;;;;;;;;;;5.90;87.00;;;;;;5092112;28;19909;-29
2023/03/07 05:09:31;;;;;;;;;;;5.90;87.00;;;;;;5090461;28;19920;-32
2023/03/07 05:11:57;;;;;;;;;;;5.90;87.10;;;;;;5092062;28;20470;-29
2023/03/07 05:14:22;;;;;;;;;;;5.90;87.10;;;;;;5091934;28;19930;-32
2023/03/07 05:16:48;;;;;;;;;;;5.90;87.10;;;;;;5091905;28;19908;-29
2023/03/07 05:19:13;;;;;;;;;;;5.90;87.10;;;;;;5092233;28;19908;-27
2023/03/07 05:21:40;;;;;;;;;;;5.90;87.10;;;;;;5092031;28;19908;-29
2023/03/07 05:24:06;;;;;;;;;;;5.80;87.00;;;;;;5091777;28;19908;-33
2023/03/07 05:26:32;;;;;;;;;;;5.90;87.10;;;;;;5029677;28;1766852;-29
2023/03/07 05:28:57;;;;;;;;;;;5.90;87.10;;;;;;5091118;28;19965;-31
2023/03/07 05:31:23;;;;;;;;;;;6.00;87.10;;;;;;5092473;28;19912;-29
2023/03/07 05:33:48;;;;;;;;;;;6.00;87.10;;;;;;5092421;28;19916;-27
2023/03/07 05:36:14;;;;;;;;;;;6.00;87.00;;;;;;5092459;28;20023;-30
2023/03/07 05:38:39;;;;;;;;;;;6.00;87.00;;;;;;5092312;28;20010;-32
2023/03/07 05:41:05;;;;;;;;;;;6.00;87.00;;;;;;5092319;28;19912;-31
2023/03/07 05:43:30;;;;;;;;;;;6.00;87.10;;;;;;5092371;28;19931;-28
2023/03/07 05:45:56;;;;;;;;;;;6.10;87.10;;;;;;5090968;28;20422;-28
2023/03/07 05:48:21;;;;;;;;;;;6.00;87.10;;;;;;5091587;28;19984;-27
2023/03/07 05:50:47;;;;;;;;;;;6.00;87.00;;;;;;5090713;28;19917;-30
2023/03/07 05:53:12;;;;;;;;;;;5.90;87.00;;;;;;5092249;28;19912;-28
2023/03/07 05:55:38;;;;;;;;;;;5.90;86.90;;;;;;5092154;28;19923;-30
2023/03/07 05:58:04;;;;;;;;;;;5.80;86.80;;;;;;5092165;28;20003;-31
2023/03/07 06:00:29;;;;;;;;;;;5.70;86.80;;;;;;5090725;28;19916;-30
2023/03/07 06:02:55;;;;;;;;;;;5.70;86.70;;;;;;5092114;28;19921;-30
2023/03/07 06:05:20;;;;;;;;;;;5.60;86.70;;;;;;5091980;28;19912;-29
2023/03/07 06:07:47;;;;;;;;;;;5.50;86.80;;;;;;5091986;28;19975;-30
2023/03/07 06:10:13;;;;;;;;;;;5.50;87.00;;;;;;5092365;28;19951;-27
2023/03/07 06:12:38;;;;;;;;;;;5.40;87.10;;;;;;5091899;28;19953;-29
2023/03/07 06:15:04;;;;;;;;;;;5.40;87.20;;;;;;5091867;28;19958;-30
2023/03/07 06:17:30;;;;;;;;;;;5.40;87.30;;;;;;5092055;28;19970;-28
2023/03/07 06:19:55;;;;;;;;;;;5.30;87.30;;;;;;5091811;28;19940;-35
2023/03/07 06:22:21;;;;;;;;;;;5.30;87.40;;;;;;5091519;28;19912;-37
2023/03/07 06:24:46;;;;;;;;;;;5.30;87.50;;;;;;5091537;28;20015;-33
2023/03/07 06:27:13;;;;;;;;;;;5.20;87.40;;;;;;5091729;28;19919;-31
2023/03/07 06:29:38;;;;;;;;;;;5.10;87.50;;;;;;5091553;28;20126;-31
2023/03/07 06:32:04;;;;;;;;;;;5.00;87.10;;;;;;5091564;28;19959;-28
2023/03/07 06:34:29;;;;;;;;;;;4.90;86.70;;;;;;5091763;28;19962;-30
2023/03/07 06:36:55;;;;;;;;;;;4.60;86.90;;;;;;5091444;28;19916;-29
2023/03/07 06:39:20;;;;;;;;;;;4.50;87.10;;;;;;5091694;28;20288;-31
2023/03/07 06:41:47;;;;;;;;;;;4.30;87.20;;;;;;5091742;28;19912;-33
2023/03/07 06:44:13;;;;;;;;;;;4.20;87.40;;;;;;5091793;28;19987;-32
2023/03/07 06:46:38;;;;;;;;;;;4.10;87.70;;;;;;5091489;28;19951;-32
2023/03/07 06:49:03;;;;;;;;;;;4.00;87.80;;;;;;5091419;28;19916;-28
2023/03/07 06:51:29;;;;;;;;;;;4.00;88.00;;;;;;5091092;28;20462;-28
2023/03/07 06:53:55;;;;;;;;;;;4.00;88.00;;;;;;5091136;28;19912;-31
2023/03/07 06:56:20;;;;;;;;;;;4.00;87.90;;;;;;5091305;28;19912;-29
2023/03/07 06:58:45;;;;;;;;;;;4.10;88.00;;;;;;5091450;28;19969;-33
2023/03/07 07:01:15;;;;;;;;;;;4.10;87.80;;;;;;5091031;28;19935;-33
2023/03/07 07:03:41;;;;;;;;;;;4.10;87.80;;;;;;5089584;28;19960;-30
2023/03/07 07:06:06;;;;;;;;;;;4.10;88.00;;;;;;5091170;28;19962;-34
2023/03/07 07:08:32;;;;;;;;;;;4.10;88.00;;;;;;5090695;28;19916;-30
2023/03/07 07:10:58;;;;;;;;;;;4.20;87.80;;;;;;5091199;28;20143;-35
2023/03/07 07:13:23;;;;;;;;;;;4.20;87.80;;;;;;5091208;28;20385;-27
2023/03/07 07:15:49;;;;;;;;;;;4.30;87.80;;;;;;5091224;28;20014;-34
2023/03/07 07:18:14;;;;;;;;;;;4.30;87.70;;;;;;5091066;28;20006;-28
2023/03/07 07:20:40;;;;;;;;;;;4.30;87.60;;;;;;5091113;28;19912;-31
2023/03/07 07:23:05;;;;;;;;;;;4.30;87.60;;;;;;5090951;28;19912;-31
2023/03/07 07:25:31;;;;;;;;;;;4.30;87.60;;;;;;5090799;28;19927;-31
2023/03/07 07:27:56;;;;;;;;;;;4.40;87.60;;;;;;5090951;28;19951;-41
2023/03/07 07:30:22;;;;;;;;;;;4.40;87.50;;;;;;5091038;28;20461;-34
2023/03/07 07:32:47;;;;;;;;;;;4.40;87.40;;;;;;5090910;28;20011;-37
2023/03/07 07:35:13;;;;;;;;;;;4.40;87.60;;;;;;5091062;28;19938;-28
2023/03/07 07:37:39;;;;;;;;;;;4.40;87.60;;;;;;5091192;28;19912;-34
2023/03/07 07:40:05;;;;;;;;;;;4.40;87.40;;;;;;5091174;28;20344;-27
2023/03/07 07:42:31;;;;;;;;;;;4.40;87.40;;;;;;5090650;28;19912;-32
2023/03/07 07:44:56;;;;;;;;;;;4.40;87.50;;;;;;5091204;28;19913;-29
2023/03/07 07:47:22;;;;;;;;;;;4.30;87.40;;;;;;5090945;28;20033;-29
2023/03/07 07:49:48;;;;;;;;;;;4.30;87.40;;;;;;5091012;28;20339;-29
2023/03/07 07:52:13;;;;;;;;;;;4.40;87.50;;;;;;5091036;28;20317;-32
2023/03/07 07:54:39;;;;;;;;;;;4.40;87.40;;;;;;5090829;28;19916;-29
2023/03/07 07:57:04;;;;;;;;;;;4.40;87.40;;;;;;5090601;28;20367;-32
2023/03/07 07:59:32;;;;;;;;;;;4.40;87.20;;;;;;5090819;28;19912;-31
2023/03/07 08:01:58;;;;;;;;;;;4.40;87.00;;;;;;5090578;28;20015;-28
2023/03/07 08:04:24;;;;;;;;;;;4.40;87.00;;;;;;5090571;28;20000;-32
2023/03/07 08:06:51;;;;;;;;;;;4.30;87.10;;;;;;5090633;28;19920;-32
2023/03/07 08:09:16;;;;;;;;;;;4.40;87.20;;;;;;5090936;28;20009;-31
2023/03/07 08:11:42;;;;;;;;;;;4.30;87.10;;;;;;5091405;28;20405;-36
2023/03/07 08:14:08;;;;;;;;;;;4.30;87.10;;;;;;5094288;28;19916;-32
2023/03/07 08:16:33;;;;;;;;;;;4.30;87.20;;;;;;5093254;28;19916;-30
2023/03/07 08:18:59;;;;;;;;;;;4.40;87.20;;;;;;5093110;28;19912;-30
2023/03/07 08:21:26;;;;;;;;;;;4.40;87.00;;;;;;5093088;28;19912;-31
2023/03/07 08:23:54;;;;;;;;;;;4.30;86.90;;;;;;5093106;28;19912;-31
2023/03/07 08:26:20;;;;;;;;;;;4.40;86.90;;;;;;5093327;28;19959;-28
2023/03/07 08:28:46;;;;;;;;;;;4.40;86.90;;;;;;5094108;28;19960;-27
2023/03/07 08:31:16;;;;;;;;;;;4.40;87.00;;;;;;5093944;28;19916;-31
2023/03/07 08:33:41;;;;;;;;;;;4.40;87.00;;;;;;5093890;28;20293;-32
2023/03/07 08:36:07;;;;;;;;;;;4.40;87.00;;;;;;5094192;28;20174;-29
2023/03/07 08:38:33;;;;;;;;;;;4.50;86.90;;;;;;5093952;28;20023;-29
2023/03/07 08:41:03;;;;;;;;;;;4.50;86.70;;;;;;5093884;28;19912;-31
2023/03/07 08:43:29;;;;;;;;;;;4.40;86.70;;;;;;5094023;28;20037;-28
2023/03/07 08:45:55;;;;;;;;;;;4.40;86.80;;;;;;5094072;28;19955;-29
2023/03/07 08:48:20;;;;;;;;;;;4.40;86.80;;;;;;5093570;28;19916;-29
2023/03/07 08:50:46;;;;;;;;;;;4.40;86.90;;;;;;5093953;28;19935;-31
2023/03/07 08:53:15;;;;;;;;;;;4.40;86.90;;;;;;5093480;28;19982;-31
2023/03/07 08:55:42;;;;;;;;;;;4.50;86.90;;;;;;5093794;28;19937;-30
2023/03/07 08:58:07;;;;;;;;;;;4.50;87.40;;;;;;5093880;28;19919;-27
2023/03/07 09:00:33;;;;;;;;;;;4.50;86.80;;;;;;5093445;28;19912;-33
2023/03/07 09:03:00;;;;;;;;;;;4.60;86.80;;;;;;5093357;28;20296;-31
2023/03/07 09:05:26;;;;;;;;;;;4.70;86.80;;;;;;5093573;28;19916;-28
2023/03/07 09:07:52;;;;;;;;;;;4.70;86.70;;;;;;5093302;28;19920;-32
2023/03/07 09:10:19;;;;;;;;;;;4.80;86.60;;;;;;5093142;28;20569;-33
2023/03/07 09:12:45;;;;;;;;;;;4.80;86.50;;;;;;5093653;28;19918;-37
2023/03/07 09:15:11;;;;;;;;;;;4.80;86.50;;;;;;5093114;28;20236;-29
2023/03/07 09:17:36;;;;;;;;;;;4.70;86.40;;;;;;5093176;28;19965;-37
2023/03/07 09:20:03;;;;;;;;;;;4.70;86.50;;;;;;5093034;28;20011;-30
2023/03/07 09:22:28;;;;;;;;;;;4.70;86.60;;;;;;5093195;28;20348;-30
2023/03/07 09:24:54;;;;;;;;;;;4.80;86.60;;;;;;5091561;28;19920;-28
2023/03/07 09:27:19;;;;;;;;;;;4.70;86.50;;;;;;5092863;28;19926;-38
2023/03/07 09:29:45;;;;;;;;;;;4.80;86.40;;;;;;5092753;28;19923;-35
2023/03/07 09:32:11;;;;;;;;;;;4.80;86.40;;;;;;5074463;28;19912;-31
2023/03/07 09:34:36;;;;;;;;;;;4.80;86.40;;;;;;5093061;28;19912;-28
2023/03/07 09:37:02;;;;;;;;;;;4.80;86.40;;;;;;5092597;28;19920;-29
2023/03/07 09:39:27;;;;;;;;;;;4.80;86.30;;;;;;5092490;28;19926;-32
2023/03/07 09:41:56;;;;;;;;;;;4.80;86.30;;;;;;5092441;28;19912;-29
2023/03/07 09:44:40;;;;;;;;;;;4.80;86.40;;;;;;5092332;28;19961;-31
2023/03/07 09:47:26;;;;;;;;;;;4.90;87.10;;;;;;5092647;28;20224;-32
2023/03/07 09:49:53;;;;;;;;;;;4.90;86.50;;;;;;5092147;28;19923;-37
2023/03/07 09:52:28;;;;;;;;;;;5.00;86.30;;;;;;5092243;28;19918;-32
2023/03/07 09:54:56;;;;;;;;;;;5.00;86.20;;;;;;5090541;28;19908;-33
2023/03/07 09:57:25;;;;;;;;;;;5.00;86.10;;;;;;5091071;28;20319;-34
2023/03/07 09:59:54;;;;;;;;;;;5.10;86.20;;;;;;5092258;28;19909;-34
2023/03/07 10:02:22;;;;;;;;;;;5.10;86.10;;;;;;5092210;28;19908;-29
2023/03/07 10:05:00;;;;;;;;;;;5.10;85.90;;;;;;5092155;28;19908;-30
2023/03/07 10:07:26;;;;;;;;;;;5.10;86.00;;;;;;5092278;28;20304;-29
2023/03/07 10:09:55;;;;;;;;;;;5.00;85.90;;;;;;5092126;28;19916;-31
2023/03/07 10:12:44;;;;;;;;;;;5.10;86.10;;;;;;5092208;28;19977;-28
2023/03/07 10:15:18;;;;;;;;;;;5.10;86.10;;;;;;5072209;28;19909;-30
2023/03/07 10:17:47;;;;;;;;;;;5.10;86.10;;;;;;5092169;28;20275;-31
2023/03/07 10:20:18;;;;;;;;;;;5.20;86.20;;;;;;5091979;28;19908;-37
2023/03/07 10:22:50;;;;;;;;;;;5.20;86.00;;;;;;5091585;28;19908;-29
2023/03/07 10:25:22;;;;;;;;;;;5.20;86.10;;;;;;5091592;28;19920;-33
2023/03/07 10:27:52;;;;;;;;;;;5.20;86.00;;;;;;5091586;28;19909;-29
2023/03/07 10:30:19;;;;;;;;;;;5.20;85.80;;;;;;5091838;28;19978;-28
2023/03/07 10:32:54;;;;;;;;;;;5.30;86.00;;;;;;5091406;28;19908;-30
2023/03/07 10:35:21;;;;;;;;;;;5.30;86.00;;;;;;5091255;28;19908;-34
2023/03/07 10:37:58;;;;;;;;;;;5.30;85.80;;;;;;5091828;28;19934;-29
2023/03/07 10:40:45;;;;;;;;;;;5.30;85.60;;;;;;5090137;28;19927;-30
2023/03/07 10:43:30;;;;;;;;;;;5.30;85.50;;;;;;5091656;28;20010;-31
2023/03/07 10:46:05;;;;;;;;;;;5.30;85.60;;;;;;5091274;28;20045;-30
2023/03/07 10:48:31;;;;;;;;;;;5.30;85.60;;;;;;5091393;28;20229;-34
2023/03/07 10:51:14;;;;;;;;;;;5.40;85.80;;;;;;5091886;28;19908;-32
2023/03/07 10:53:40;;;;;;;;;;;5.30;85.70;;;;;;5090443;28;19908;-34
2023/03/07 10:56:08;;;;;;;;;;;5.40;85.80;;;;;;5091587;28;19908;-30
2023/03/07 10:58:34;;;;;;;;;;;5.30;85.40;;;;;;5091320;28;19915;-29
2023/03/07 11:01:05;;;;;;;;;;;5.30;85.40;;;;;;5091810;28;20390;-35
2023/03/07 11:03:51;;;;;;;;;;;5.40;85.70;;;;;;5091440;28;19908;-29
2023/03/07 11:06:36;;;;;;;;;;;5.50;85.70;;;;;;5083632;28;19908;-33
2023/03/07 11:09:09;;;;;;;;;;;5.60;85.60;;;;;;5091073;28;20126;-30
2023/03/07 11:11:36;;;;;;;;;;;5.60;85.40;;;;;;5091296;28;19915;-29
2023/03/07 11:14:07;;;;;;;;;;;5.70;85.20;;;;;;5091621;28;20414;-33
2023/03/07 11:16:32;;;;;;;;;;;5.70;85.20;;;;;;5091075;28;20029;-30
2023/03/07 11:18:58;;;;;;;;;;;5.80;85.40;;;;;;5091161;28;19947;-30
2023/03/07 11:21:26;;;;;;;;;;;5.80;85.10;;;;;;5089677;28;19912;-41
2023/03/07 11:24:03;;;;;;;;;;;5.90;85.00;;;;;;5090949;28;19930;-31
2023/03/07 11:26:30;;;;;;;;;;;5.80;84.90;;;;;;5090683;28;19947;-30
2023/03/07 11:29:06;;;;;;;;;;;5.80;85.30;;;;;;5091038;28;20389;-31
2023/03/07 11:31:36;;;;;;;;;;;5.90;84.20;;;;;;5090948;28;19912;-37
2023/03/07 11:34:25;;;;;;;;;;;5.90;84.30;;;;;;5091242;28;19920;-31
2023/03/07 11:36:55;;;;;;;;;;;5.80;84.50;;;;;;5085337;28;20022;-32
2023/03/07 11:39:32;;;;;;;;;;;5.90;84.70;;;;;;5091019;28;20005;-34
2023/03/07 11:42:02;;;;;;;;;;;5.90;84.30;;;;;;5091006;28;19965;-33
2023/03/07 11:44:46;;;;;;;;;;;5.90;84.20;;;;;;5091023;28;19941;-31
2023/03/07 11:47:24;;;;;;;;;;;5.80;84.30;;;;;;5092116;28;19919;-34
2023/03/07 11:49:55;;;;;;;;;;;5.80;84.40;;;;;;5094915;28;19966;-34
2023/03/07 11:52:47;;;;;;;;;;;5.70;84.50;;;;;;5095054;28;19947;-40
2023/03/07 11:55:31;;;;;;;;;;;5.70;84.40;;;;;;5092650;28;19912;-33
2023/03/07 11:58:02;;;;;;;;;;;5.60;84.40;;;;;;5094554;28;19912;-45
2023/03/07 12:00:34;;;;;;;;;;;5.50;84.50;;;;;;5094581;28;19984;-35
2023/03/07 12:03:05;;;;;;;;;;;5.50;84.80;;;;;;5094583;28;19912;-32
2023/03/07 12:05:57;;;;;;;;;;;5.40;84.90;;;;;;5094901;28;19912;-34
2023/03/07 12:08:32;;;;;;;;;;;5.40;84.90;;;;;;5092092;28;20434;-37
2023/03/07 12:11:10;;;;;;;;;;;5.40;85.80;;;;;;5094425;28;19965;-37
2023/03/07 12:14:02;;;;;;;;;;;5.50;85.30;;;;;;5094365;28;19957;-35
2023/03/07 12:16:36;;;;;;;;;;;5.50;85.80;;;;;;5092085;28;19916;-30
2023/03/07 12:19:15;;;;;;;;;;;5.60;85.70;;;;;;5092786;28;19913;-31
2023/03/07 12:21:41;;;;;;;;;;;5.60;85.00;;;;;;5094522;28;19920;-33
2023/03/07 12:24:12;;;;;;;;;;;5.50;84.80;;;;;;5094534;28;20312;-30
2023/03/07 12:26:54;;;;;;;;;;;5.50;85.00;;;;;;5093874;28;19920;-35
2023/03/07 12:29:35;;;;;;;;;;;5.40;85.00;;;;;;5094040;28;20014;-35
2023/03/07 12:32:03;;;;;;;;;;;5.30;85.00;;;;;;5094584;28;19912;-33
2023/03/07 12:34:46;;;;;;;;;;;5.10;85.30;;;;;;5094414;28;19916;-32
2023/03/07 12:37:21;;;;;;;;;;;5.00;85.50;;;;;;5094007;28;20371;-31
2023/03/07 12:39:51;;;;;;;;;;;4.90;86.00;;;;;;5094052;28;19912;-30
2023/03/07 12:42:35;;;;;;;;;;;4.90;86.00;;;;;;5093860;28;19952;-30
2023/03/07 12:45:06;;;;;;;;;;;4.70;86.00;;;;;;5093737;28;19947;-32
2023/03/07 12:47:35;;;;;;;;;;;4.70;86.00;;;;;;5093694;28;19916;-32
2023/03/07 12:50:03;;;;;;;;;;;4.60;86.20;;;;;;5093696;28;19963;-39
2023/03/07 12:52:34;;;;;;;;;;;4.60;86.30;;;;;;5093635;28;19916;-29
2023/03/07 12:55:14;;;;;;;;;;;4.50;86.40;;;;;;5093822;28;19920;-34
2023/03/07 12:57:42;;;;;;;;;;;4.50;86.40;;;;;;5093470;28;19912;-32
2023/03/07 13:00:10;;;;;;;;;;;4.50;86.40;;;;;;5093635;28;19919;-30
2023/03/07 13:02:40;;;;;;;;;;;4.50;86.40;;;;;;5093383;28;20026;-31
2023/03/07 13:05:12;;;;;;;;;;;4.50;86.60;;;;;;5093889;28;19912;-30
2023/03/07 13:07:39;;;;;;;;;;;4.50;86.60;;;;;;5093474;28;19920;-30
2023/03/07 13:10:05;;;;;;;;;;;4.60;86.70;;;;;;5093546;28;19928;-34
2023/03/07 13:12:30;;;;;;;;;;;4.60;86.60;;;;;;5093617;28;19912;-34
2023/03/07 13:15:00;;;;;;;;;;;4.70;86.70;;;;;;5093603;28;20367;-30
2023/03/07 13:17:29;;;;;;;;;;;4.80;86.30;;;;;;5093209;28;19919;-31
2023/03/07 13:20:13;;;;;;;;;;;4.80;86.30;;;;;;5093166;28;19924;-32
2023/03/07 13:22:38;;;;;;;;;;;4.80;86.20;;;;;;5093022;28;19916;-32
2023/03/07 13:25:19;;;;;;;;;;;4.80;86.20;;;;;;5091698;28;19916;-34
2023/03/07 13:27:45;;;;;;;;;;;4.90;86.10;;;;;;5092772;28;19919;-32
2023/03/07 13:30:10;;;;;;;;;;;5.00;86.20;;;;;;5093391;28;19912;-32
2023/03/07 13:32:51;;;;;;;;;;;5.10;86.70;;;;;;5092932;28;20367;-31
2023/03/07 13:35:32;;;;;;;;;;;5.20;86.10;;;;;;5092883;28;19912;-34
2023/03/07 13:37:57;;;;;;;;;;;5.30;86.00;;;;;;5092749;28;19912;-29
2023/03/07 13:40:26;;;;;;;;;;;5.40;86.00;;;;;;5092812;28;19919;-33
2023/03/07 13:42:52;;;;;;;;;;;5.60;85.80;;;;;;5092640;28;19930;-38
2023/03/07 13:45:36;;;;;;;;;;;5.60;85.40;;;;;;5092935;28;19923;-29
2023/03/07 13:48:02;;;;;;;;;;;5.50;85.20;;;;;;5092454;28;19923;-30
2023/03/07 13:50:34;;;;;;;;;;;5.60;85.40;;;;;;5092750;28;19951;-30
2023/03/07 13:53:19;;;;;;;;;;;5.60;85.10;;;;;;5092448;28;20312;-31
2023/03/07 13:55:55;;;;;;;;;;;5.60;85.00;;;;;;5092676;28;19912;-34
2023/03/07 13:58:24;;;;;;;;;;;5.60;85.00;;;;;;5092830;28;19965;-36
2023/03/07 14:00:51;;;;;;;;;;;5.60;84.90;;;;;;5092277;28;19913;-30
2023/03/07 14:03:22;;;;;;;;;;;5.60;84.30;;;;;;5092288;28;20402;-37
2023/03/07 14:05:48;;;;;;;;;;;5.60;84.30;;;;;;5092302;28;19918;-34
2023/03/07 14:08:14;;;;;;;;;;;5.70;84.20;;;;;;5092181;28;19916;-34
2023/03/07 14:10:43;;;;;;;;;;;5.60;83.80;;;;;;5091771;28;19912;-35
2023/03/07 14:13:08;;;;;;;;;;;5.60;84.00;;;;;;5092429;28;20011;-36
2023/03/07 14:15:49;;;;;;;;;;;5.60;83.90;;;;;;5092152;28;20336;-33
2023/03/07 14:18:38;;;;;;;;;;;5.60;84.00;;;;;;5092025;28;19962;-29
2023/03/07 14:21:11;;;;;;;;;;;5.60;83.40;;;;;;5091923;28;19931;-36
2023/03/07 14:23:55;;;;;;;;;;;5.50;83.10;;;;;;5091876;28;19918;-40
2023/03/07 14:26:25;;;;;;;;;;;5.40;83.30;;;;;;5091568;28;19920;-36
2023/03/07 14:28:56;;;;;;;;;;;5.30;83.50;;;;;;5092043;28;20371;-35
2023/03/07 14:31:24;;;;;;;;;;;5.30;83.50;;;;;;5091955;28;19916;-36
2023/03/07 14:33:49;;;;;;;;;;;5.30;83.50;;;;;;5092024;28;19912;-45
2023/03/07 14:36:32;;;;;;;;;;;5.20;83.20;;;;;;5091819;28;20431;-31
2023/03/07 14:39:01;;;;;;;;;;;5.10;83.20;;;;;;5091606;28;19923;-33